Time;durP1;ratioP1;P1;durP2;ratioP2;P2;SDS_P1;SDS_P2;PMS_P1;PMS_P2;Temp;Humidity;BMP_temperature;BMP_pressure;BME280_temperature;BME280_humidity;BME280_pressure;Samples;Min_cycle;Max_cycle;Signal;HPM_P1;HPM_P2
2021/08/06 09:15:43;;;;;;;3.30;1.65;;;23.50;58.60;;;;;;5019174;28;20249;-83
2021/08/06 09:21:34;;;;;;;2.47;1.80;;;24.80;50.80;;;;;;4969059;28;20202;-87
2021/08/06 09:24:01;;;;;;;2.22;1.90;;;25.60;43.90;;;;;;5019320;28;20235;-83
2021/08/06 09:26:40;;;;;;;1.52;1.42;;;27.10;39.60;;;;;;5019883;28;20198;-86
2021/08/06 09:29:10;;;;;;;2.55;2.00;;;29.30;32.90;;;;;;5034822;28;20221;-83
2021/08/06 09:31:41;;;;;;;2.20;2.10;;;31.00;26.50;;;;;;5037886;28;20281;-84
2021/08/06 09:47:30;;;;;;;2.08;1.98;;;31.40;23.00;;;;;;5001164;28;20193;-85
2021/08/06 09:49:59;;;;;;;4.18;2.00;;;29.30;25.70;;;;;;5036722;28;20213;-84
2021/08/06 09:52:30;;;;;;;3.28;2.10;;;28.40;29.50;;;;;;5036681;28;20212;-84
2021/08/06 09:54:57;;;;;;;2.30;1.90;;;28.70;29.00;;;;;;5043928;28;20672;-84
2021/08/06 09:57:24;;;;;;;2.67;1.70;;;29.00;27.00;;;;;;5038084;28;20614;-83
2021/08/06 10:00:13;;;;;;;3.33;1.90;;;27.30;28.70;;;;;;5047061;28;20310;-83
2021/08/06 10:02:43;;;;;;;2.47;1.92;;;25.90;33.20;;;;;;5025617;28;20219;-83
2021/08/06 10:05:55;;;;;;;2.15;1.52;;;24.90;36.20;;;;;;5023635;28;20285;-83
2021/08/06 10:08:25;;;;;;;1.85;1.60;;;24.00;39.80;;;;;;5037205;28;20304;-82
2021/08/06 10:10:53;;;;;;;1.95;1.70;;;23.30;45.00;;;;;;5043810;28;20289;-82
2021/08/06 10:13:20;;;;;;;2.78;1.80;;;22.70;48.40;;;;;;5039515;28;20292;-83
2021/08/06 10:15:47;;;;;;;4.53;2.00;;;23.30;48.80;;;;;;5036677;28;20191;-82
2021/08/06 10:18:15;;;;;;;2.22;1.92;;;23.90;45.90;;;;;;5036062;28;20268;-84
2021/08/06 10:20:42;;;;;;;1.80;1.70;;;24.40;43.50;;;;;;5041119;28;20293;-82
2021/08/06 10:23:09;;;;;;;3.63;1.85;;;24.70;41.30;;;;;;5042386;28;20309;-82
2021/08/06 10:25:36;;;;;;;2.00;1.80;;;24.80;40.20;;;;;;5040309;28;20292;-82
2021/08/06 10:28:05;;;;;;;1.92;1.67;;;24.30;42.20;;;;;;5042078;28;20245;-84
2021/08/06 10:30:33;;;;;;;2.83;1.70;;;24.00;43.40;;;;;;5039568;28;20213;-81
2021/08/06 10:33:08;;;;;;;2.90;1.75;;;23.40;46.10;;;;;;5035976;28;20231;-83
2021/08/06 10:35:49;;;;;;;2.72;1.73;;;23.20;46.50;;;;;;5024561;28;20234;-82
2021/08/06 10:38:17;;;;;;;3.00;1.80;;;24.10;45.20;;;;;;5017606;28;20302;-84
2021/08/06 10:41:08;;;;;;;2.33;1.77;;;25.90;40.50;;;;;;5018292;28;20517;-85
2021/08/06 10:43:38;;;;;;;4.15;2.10;;;27.10;32.50;;;;;;4996687;28;20254;-85
2021/08/06 10:46:05;;;;;;;2.83;1.85;;;27.90;31.20;;;;;;4998610;28;20195;-86
2021/08/06 10:48:37;;;;;;;2.58;2.05;;;29.30;26.60;;;;;;5019782;28;20313;-85
2021/08/06 10:51:30;;;;;;;2.63;2.05;;;30.20;22.90;;;;;;5015470;28;20205;-86
2021/08/06 10:54:33;;;;;;;3.58;1.80;;;30.20;22.90;;;;;;5010738;28;20226;-86
2021/08/06 10:57:36;;;;;;;3.05;2.30;;;30.00;21.20;;;;;;5020974;28;20209;-89
2021/08/06 11:00:04;;;;;;;2.20;2.10;;;30.50;22.60;;;;;;5008183;28;20289;-86
2021/08/06 11:02:40;;;;;;;2.30;2.10;;;30.70;20.00;;;;;;5007807;28;20209;-86
2021/08/06 11:05:30;;;;;;;2.88;2.10;;;30.30;20.40;;;;;;5010984;28;20221;-86
2021/08/06 11:08:00;;;;;;;2.15;1.85;;;29.10;22.80;;;;;;5008016;28;20237;-86
2021/08/06 11:10:51;;;;;;;6.43;2.00;;;28.10;25.70;;;;;;5016459;28;20203;-84
2021/08/06 11:13:53;;;;;;;2.97;2.00;;;27.20;26.60;;;;;;5020662;28;20693;-86
2021/08/06 11:16:21;;;;;;;2.30;1.70;;;26.70;29.50;;;;;;5036060;28;20194;-86
2021/08/06 11:18:50;;;;;;;2.10;1.70;;;26.60;29.80;;;;;;5025143;28;20261;-83
2021/08/06 11:21:19;;;;;;;3.15;1.90;;;26.50;28.70;;;;;;5041023;28;20240;-83
2021/08/06 11:23:58;;;;;;;3.53;1.90;;;26.30;29.00;;;;;;5039281;28;20226;-82
2021/08/06 11:26:25;;;;;;;4.38;2.15;;;26.10;29.50;;;;;;5032976;28;20229;-82
2021/08/06 11:28:55;;;;;;;2.08;1.80;;;25.70;32.80;;;;;;5040276;28;20305;-84
